createdAt,value
2018-06-23T00:00:24.837Z,12.75
2018-06-23T00:02:53.384Z,12.67
2018-06-23T00:05:22.020Z,12.61
2018-06-23T00:07:50.796Z,12.49
2018-06-23T00:10:19.595Z,12.47
2018-06-23T00:12:48.256Z,12.45
2018-06-23T00:15:16.968Z,12.20
2018-06-23T00:17:45.567Z,12.04
2018-06-23T00:20:14.371Z,12.04
2018-06-23T00:22:43.176Z,12.08
2018-06-23T00:25:16.399Z,12.21
2018-06-23T00:27:45.052Z,12.07
2018-06-23T00:30:13.732Z,12.27
2018-06-23T00:32:42.563Z,12.24
2018-06-23T00:35:11.319Z,12.21
2018-06-23T00:37:39.976Z,12.17
2018-06-23T00:40:08.673Z,12.06
2018-06-23T00:42:37.637Z,12.19
2018-06-23T00:45:06.452Z,12.20
2018-06-23T00:47:35.149Z,12.08
2018-06-23T00:50:04.127Z,11.98
2018-06-23T00:52:32.843Z,12.14
2018-06-23T00:55:01.469Z,11.93
2018-06-23T00:57:30.227Z,12.06
2018-06-23T00:59:58.995Z,12.04
2018-06-23T01:02:27.886Z,12.08
2018-06-23T01:04:56.530Z,12.11
2018-06-23T01:07:25.191Z,12.11
2018-06-23T01:09:54.180Z,12.11
2018-06-23T01:12:22.880Z,11.85
2018-06-23T01:14:52.011Z,11.90
2018-06-23T01:17:20.647Z,11.91
2018-06-23T01:19:49.460Z,11.76
2018-06-23T01:22:18.235Z,11.83
2018-06-23T01:24:46.884Z,11.55
2018-06-23T01:27:15.648Z,11.56
2018-06-23T01:29:44.357Z,11.63
2018-06-23T01:32:13.038Z,11.64
2018-06-23T01:34:41.831Z,11.68
2018-06-23T01:37:10.515Z,11.63
2018-06-23T01:39:39.323Z,11.57
2018-06-23T01:42:08.126Z,11.47
2018-06-23T01:44:36.699Z,11.16
2018-06-23T01:47:05.628Z,11.38
2018-06-23T01:49:34.212Z,11.23
2018-06-23T01:52:02.934Z,11.30
2018-06-23T01:54:31.556Z,11.20
2018-06-23T01:57:00.148Z,11.13
2018-06-23T01:59:28.805Z,11.04
2018-06-23T02:01:57.371Z,10.99
2018-06-23T02:04:26.256Z,10.89
2018-06-23T02:06:54.995Z,10.86
2018-06-23T02:09:23.687Z,10.86
2018-06-23T02:11:52.434Z,10.70
2018-06-23T02:14:26.352Z,10.72
2018-06-23T02:17:00.045Z,10.77
2018-06-23T02:19:33.956Z,10.75
2018-06-23T02:22:07.746Z,10.37
2018-06-23T02:24:41.695Z,10.32
2018-06-23T02:27:15.873Z,10.49
2018-06-23T02:29:49.773Z,10.51
2018-06-23T02:32:23.712Z,10.47
2018-06-23T02:34:57.528Z,10.46
2018-06-23T02:37:26.584Z,10.50
2018-06-23T02:39:55.413Z,10.48
2018-06-23T02:42:24.011Z,10.40
2018-06-23T02:44:52.695Z,10.33
2018-06-23T02:47:21.385Z,10.20
2018-06-23T02:49:50.107Z,10.43
2018-06-23T02:52:18.903Z,10.21
2018-06-23T02:54:47.576Z,10.30
2018-06-23T02:57:16.212Z,10.38
2018-06-23T02:59:45.067Z,10.35
2018-06-23T03:02:13.815Z,10.50
2018-06-23T03:04:42.439Z,10.46
2018-06-23T03:07:11.147Z,10.52
2018-06-23T03:09:39.736Z,10.58
2018-06-23T03:12:08.789Z,10.52
2018-06-23T03:14:37.490Z,10.46
2018-06-23T03:17:10.760Z,10.47
2018-06-23T03:19:39.468Z,10.47
2018-06-23T03:22:08.079Z,10.36
2018-06-23T03:24:36.942Z,10.49
2018-06-23T03:27:05.691Z,10.37
2018-06-23T03:29:34.292Z,10.47
2018-06-23T03:32:03.114Z,10.55
2018-06-23T03:34:31.993Z,10.69
2018-06-23T03:37:00.692Z,10.60
2018-06-23T03:39:29.363Z,10.67
2018-06-23T03:41:58.049Z,10.78
2018-06-23T03:44:26.672Z,10.81
2018-06-23T03:46:55.697Z,10.83
2018-06-23T03:49:24.512Z,10.82
2018-06-23T03:51:53.371Z,10.77
2018-06-23T03:54:22.179Z,10.69
2018-06-23T03:56:50.886Z,10.83
2018-06-23T03:59:19.673Z,10.77
2018-06-23T04:01:48.320Z,10.82
2018-06-23T04:04:17.041Z,10.86
2018-06-23T04:06:45.931Z,11.00
2018-06-23T04:09:14.636Z,11.08
2018-06-23T04:11:43.251Z,11.09
2018-06-23T04:14:11.796Z,11.05
2018-06-23T04:16:40.493Z,11.13
2018-06-23T04:19:09.285Z,11.07
2018-06-23T04:21:37.946Z,11.10
2018-06-23T04:24:06.603Z,11.20
2018-06-23T04:26:35.527Z,11.38
2018-06-23T04:29:04.140Z,11.42
2018-06-23T04:31:32.881Z,11.53
2018-06-23T04:34:01.753Z,11.45
2018-06-23T04:36:30.432Z,11.48
2018-06-23T04:38:59.049Z,11.43
2018-06-23T04:41:27.875Z,11.42
2018-06-23T04:43:56.935Z,11.54
2018-06-23T04:46:25.619Z,11.51
2018-06-23T04:48:54.256Z,11.49
2018-06-23T04:51:23.328Z,11.60
2018-06-23T04:53:52.156Z,11.59
2018-06-23T04:56:20.830Z,11.66
2018-06-23T04:58:49.583Z,11.63
2018-06-23T05:01:18.287Z,11.75
2018-06-23T05:03:47.136Z,11.75
2018-06-23T05:06:15.796Z,11.85
2018-06-23T05:08:44.805Z,11.95
2018-06-23T05:11:13.697Z,12.21
2018-06-23T05:13:42.592Z,12.39
2018-06-23T05:16:11.287Z,12.58
2018-06-23T05:18:39.887Z,12.97
2018-06-23T05:21:08.515Z,13.06
2018-06-23T05:23:37.179Z,13.42
2018-06-23T05:26:06.014Z,13.78
2018-06-23T05:28:34.563Z,14.12
2018-06-23T05:31:03.129Z,14.33
2018-06-23T05:33:31.733Z,14.30
2018-06-23T05:36:00.343Z,14.46
2018-06-23T05:38:28.987Z,14.60
2018-06-23T05:40:57.694Z,14.56
2018-06-23T05:43:26.495Z,14.79
2018-06-23T05:45:55.185Z,14.91
2018-06-23T05:48:23.743Z,14.88
2018-06-23T05:50:52.524Z,15.12
2018-06-23T05:53:21.289Z,15.08
2018-06-23T05:55:50.017Z,15.13
2018-06-23T05:58:18.911Z,15.21
2018-06-23T06:00:47.642Z,15.53
2018-06-23T06:03:16.164Z,15.69
2018-06-23T06:05:44.759Z,15.81
2018-06-23T06:08:13.522Z,15.45
2018-06-23T06:10:42.120Z,15.79
2018-06-23T06:13:10.788Z,16.08
2018-06-23T06:15:39.368Z,16.05
2018-06-23T06:18:08.677Z,16.04
2018-06-23T06:20:37.251Z,16.43
2018-06-23T06:23:06.972Z,16.42
2018-06-23T06:25:36.369Z,16.40
2018-06-23T06:28:06.399Z,16.62
2018-06-23T06:30:35.010Z,16.61
2018-06-23T06:33:03.919Z,16.89
2018-06-23T06:35:32.566Z,16.98
2018-06-23T06:38:01.227Z,17.00
2018-06-23T06:40:29.969Z,17.33
2018-06-23T06:42:58.603Z,17.40
2018-06-23T06:45:27.193Z,17.16
2018-06-23T06:47:56.799Z,17.16
2018-06-23T06:50:25.428Z,17.40
2018-06-23T06:52:54.087Z,17.52
2018-06-23T06:55:22.723Z,17.97
2018-06-23T06:57:51.390Z,17.91
2018-06-23T07:00:20.096Z,18.73
2018-06-23T07:02:48.651Z,19.46
2018-06-23T07:05:17.318Z,19.73
2018-06-23T07:07:45.929Z,20.18
2018-06-23T07:10:15.135Z,21.05
2018-06-23T07:12:43.768Z,21.77
2018-06-23T07:15:16.956Z,21.70
2018-06-23T07:17:45.976Z,21.97
2018-06-23T07:20:15.238Z,22.10
2018-06-23T07:22:44.573Z,22.54
2018-06-23T07:25:13.380Z,22.35
2018-06-23T07:27:42.337Z,21.94
2018-06-23T07:30:11.171Z,22.32
2018-06-23T07:32:39.786Z,22.19
2018-06-23T07:35:08.425Z,21.78
2018-06-23T07:37:37.083Z,21.42
2018-06-23T07:40:05.748Z,20.91
2018-06-23T07:42:34.439Z,20.44
2018-06-23T07:45:03.043Z,20.37
2018-06-23T07:47:31.764Z,20.98
2018-06-23T07:50:00.408Z,21.65
2018-06-23T07:52:28.963Z,22.62
2018-06-23T07:54:57.635Z,23.56
2018-06-23T07:57:26.304Z,23.27
2018-06-23T07:59:54.939Z,23.02
2018-06-23T08:02:23.524Z,23.35
2018-06-23T08:04:52.096Z,24.05
2018-06-23T08:07:20.774Z,24.98
2018-06-23T08:09:49.668Z,25.13
2018-06-23T08:12:18.383Z,25.65
2018-06-23T08:14:47.124Z,26.08
2018-06-23T08:17:16.044Z,25.24
2018-06-23T08:19:44.765Z,24.89
2018-06-23T08:22:13.408Z,24.05
2018-06-23T08:24:42.024Z,23.94
2018-06-23T08:27:10.764Z,23.83
2018-06-23T08:29:39.321Z,24.66
2018-06-23T08:32:08.108Z,25.32
2018-06-23T08:34:36.699Z,25.82
2018-06-23T08:37:05.840Z,25.30
2018-06-23T08:39:34.428Z,24.07
2018-06-23T08:42:02.992Z,23.61
2018-06-23T08:44:31.609Z,22.78
2018-06-23T08:47:00.304Z,23.39
2018-06-23T08:49:28.927Z,24.04
2018-06-23T08:51:57.568Z,23.84
2018-06-23T08:54:26.548Z,23.21
2018-06-23T08:56:55.348Z,23.97
2018-06-23T08:59:24.000Z,24.65
2018-06-23T09:01:52.709Z,25.40
2018-06-23T09:04:21.228Z,26.12
2018-06-23T09:06:50.869Z,25.71
2018-06-23T09:09:19.582Z,24.79
2018-06-23T09:11:48.206Z,24.22
2018-06-23T09:14:16.888Z,24.15
2018-06-23T09:16:45.528Z,25.21
2018-06-23T09:19:14.103Z,26.18
2018-06-23T09:21:42.770Z,27.41
2018-06-23T09:24:11.376Z,28.73
2018-06-23T09:26:39.936Z,28.12
2018-06-23T09:29:08.502Z,27.34
2018-06-23T09:31:39.582Z,26.25
2018-06-23T09:34:08.506Z,24.84
2018-06-23T09:36:37.148Z,23.61
2018-06-23T09:39:08.543Z,23.38
2018-06-23T09:41:37.336Z,23.53
2018-06-23T09:44:06.588Z,24.02
2018-06-23T09:46:35.295Z,24.44
2018-06-23T09:49:03.952Z,26.05
2018-06-23T09:51:32.792Z,25.61
2018-06-23T09:54:01.435Z,25.92
2018-06-23T09:56:30.105Z,25.68
2018-06-23T09:58:58.735Z,25.73
2018-06-23T10:01:27.383Z,24.96
2018-06-23T10:03:56.008Z,25.05
2018-06-23T10:06:24.664Z,26.43
2018-06-23T10:08:53.408Z,29.51
2018-06-23T10:11:22.214Z,28.62
2018-06-23T10:13:50.815Z,27.28
2018-06-23T10:16:19.456Z,26.06
2018-06-23T10:18:48.355Z,24.92
2018-06-23T10:21:16.872Z,24.64
2018-06-23T10:23:45.742Z,24.29
2018-06-23T10:26:14.499Z,23.67
2018-06-23T10:28:43.687Z,23.79
2018-06-23T10:31:12.223Z,24.18
2018-06-23T10:33:40.860Z,25.53
2018-06-23T10:36:09.539Z,28.62
2018-06-23T10:38:38.249Z,31.11
2018-06-23T10:41:06.751Z,31.61
2018-06-23T10:43:35.355Z,31.94
2018-06-23T10:46:03.936Z,30.37
2018-06-23T10:48:32.854Z,27.85
2018-06-23T10:51:01.508Z,27.00
2018-06-23T10:53:30.347Z,26.25
2018-06-23T10:55:59.216Z,25.57
2018-06-23T10:58:27.887Z,25.97
2018-06-23T11:00:56.703Z,25.65
2018-06-23T11:03:25.324Z,26.31
2018-06-23T11:05:54.382Z,26.76
2018-06-23T11:08:23.026Z,27.08
2018-06-23T11:10:51.584Z,27.94
2018-06-23T11:13:20.240Z,27.59
2018-06-23T11:15:48.875Z,28.62
2018-06-23T11:18:17.825Z,26.96
2018-06-23T11:20:46.511Z,26.49
2018-06-23T11:23:15.182Z,26.12
2018-06-23T11:25:43.751Z,27.65
2018-06-23T11:28:12.376Z,30.05
2018-06-23T11:30:41.239Z,32.22
2018-06-23T11:33:09.950Z,34.04
2018-06-23T11:35:38.577Z,34.42
2018-06-23T11:38:07.208Z,33.05
2018-06-23T11:40:35.835Z,32.65
2018-06-23T11:43:04.682Z,33.91
2018-06-23T11:45:33.323Z,34.66
2018-06-23T11:48:01.877Z,35.79
2018-06-23T11:50:30.446Z,36.90
2018-06-23T11:52:59.126Z,37.74
2018-06-23T11:55:28.111Z,36.68
2018-06-23T11:57:56.737Z,36.44
2018-06-23T12:00:25.771Z,37.22
2018-06-23T12:02:54.359Z,36.45
2018-06-23T12:05:23.020Z,36.98
2018-06-23T12:07:51.867Z,37.43
2018-06-23T12:10:20.491Z,37.77
2018-06-23T12:12:49.131Z,38.55
2018-06-23T12:15:17.767Z,38.15
2018-06-23T12:17:46.327Z,38.39
2018-06-23T12:20:14.989Z,39.37
2018-06-23T12:22:43.665Z,37.32
2018-06-23T12:25:12.282Z,36.80
2018-06-23T12:27:41.205Z,36.05
2018-06-23T12:30:10.112Z,35.80
2018-06-23T12:32:38.904Z,35.73
2018-06-23T12:35:07.761Z,35.51
2018-06-23T12:37:36.448Z,36.74
2018-06-23T12:40:05.036Z,37.51
2018-06-23T12:42:33.589Z,37.30
2018-06-23T12:45:02.541Z,37.30
2018-06-23T12:47:31.173Z,37.75
2018-06-23T12:49:59.759Z,37.17
2018-06-23T12:52:28.368Z,36.82
2018-06-23T12:54:56.951Z,35.18
2018-06-23T12:57:25.863Z,36.31
2018-06-23T12:59:54.523Z,36.62
2018-06-23T13:02:23.083Z,37.07
2018-06-23T13:04:51.888Z,36.57
2018-06-23T13:07:20.560Z,36.67
2018-06-23T13:09:49.160Z,36.78
2018-06-23T13:12:17.747Z,37.32
2018-06-23T13:14:46.416Z,35.46
2018-06-23T13:17:15.028Z,36.65
2018-06-23T13:19:43.676Z,36.69
2018-06-23T13:22:12.812Z,36.93
2018-06-23T13:24:41.384Z,35.60
2018-06-23T13:27:09.952Z,35.97
2018-06-23T13:29:38.644Z,36.53
2018-06-23T13:32:07.320Z,35.77
2018-06-23T13:34:35.927Z,35.42
2018-06-23T13:37:04.811Z,36.11
2018-06-23T13:39:33.804Z,36.05
2018-06-23T13:42:02.406Z,34.84
2018-06-23T13:44:31.048Z,35.17
2018-06-23T13:46:59.813Z,34.88
2018-06-23T13:49:28.548Z,34.01
2018-06-23T13:51:57.097Z,34.17
2018-06-23T13:54:25.733Z,34.58
2018-06-23T13:56:54.603Z,35.59
2018-06-23T13:59:23.426Z,35.28
2018-06-23T14:01:52.069Z,35.26
2018-06-23T14:04:20.648Z,35.22
2018-06-23T14:06:49.580Z,34.66
2018-06-23T14:09:18.214Z,34.37
2018-06-23T14:11:47.276Z,34.89
2018-06-23T14:14:16.140Z,34.23
2018-06-23T14:16:44.847Z,34.88
2018-06-23T14:19:13.491Z,34.43
2018-06-23T14:21:42.134Z,33.96
2018-06-23T14:24:10.909Z,34.12
2018-06-23T14:26:39.596Z,33.97
2018-06-23T14:29:09.662Z,34.00
2018-06-23T14:31:38.495Z,32.81
2018-06-23T14:34:07.115Z,32.44
2018-06-23T14:36:35.952Z,32.78
2018-06-23T14:39:07.152Z,32.43
2018-06-23T14:41:35.764Z,32.41
2018-06-23T14:44:04.355Z,32.87
2018-06-23T14:46:34.120Z,33.07
2018-06-23T14:49:02.739Z,31.60
2018-06-23T14:51:31.420Z,31.71
2018-06-23T14:54:00.740Z,31.11
2018-06-23T14:56:29.536Z,30.63
2018-06-23T14:58:58.188Z,30.63
2018-06-23T15:01:26.776Z,29.51
2018-06-23T15:03:55.371Z,28.87
2018-06-23T15:06:23.947Z,28.09
2018-06-23T15:09:04.128Z,27.55
2018-06-23T15:11:44.081Z,27.42
2018-06-23T15:14:12.716Z,26.77
2018-06-23T15:16:41.307Z,25.84
2018-06-23T15:19:10.019Z,26.07
2018-06-23T15:21:38.697Z,26.26
2018-06-23T15:24:07.383Z,25.85
2018-06-23T15:26:35.935Z,25.82
2018-06-23T15:29:05.004Z,25.57
2018-06-23T15:31:33.627Z,25.68
2018-06-23T15:34:02.520Z,25.82
2018-06-23T15:36:31.119Z,25.84
2018-06-23T15:38:59.667Z,25.67
2018-06-23T15:41:28.407Z,25.23
2018-06-23T15:43:57.060Z,25.02
2018-06-23T15:46:25.631Z,24.69
2018-06-23T15:48:54.664Z,24.94
2018-06-23T15:51:23.269Z,24.86
2018-06-23T15:53:51.958Z,24.73
2018-06-23T15:56:20.804Z,24.40
2018-06-23T15:58:49.363Z,24.62
2018-06-23T16:01:18.145Z,24.25
2018-06-23T16:03:46.735Z,24.57
2018-06-23T16:06:15.459Z,24.21
2018-06-23T16:08:44.108Z,24.28
2018-06-23T16:11:12.895Z,24.48
2018-06-23T16:13:41.519Z,24.57
2018-06-23T16:16:10.177Z,24.04
2018-06-23T16:18:38.788Z,23.85
2018-06-23T16:21:08.166Z,23.82
2018-06-23T16:23:36.924Z,23.79
2018-06-23T16:26:05.615Z,23.64
2018-06-23T16:28:34.269Z,23.74
2018-06-23T16:31:03.360Z,23.55
2018-06-23T16:33:31.991Z,23.59
2018-06-23T16:36:01.305Z,23.26
2018-06-23T16:38:29.965Z,23.42
2018-06-23T16:40:58.582Z,23.70
2018-06-23T16:43:27.501Z,23.72
2018-06-23T16:45:56.148Z,23.74
2018-06-23T16:48:24.696Z,23.85
2018-06-23T16:50:53.392Z,23.75
2018-06-23T16:53:21.990Z,23.72
2018-06-23T16:55:50.688Z,23.42
2018-06-23T16:58:19.604Z,23.43
2018-06-23T17:00:48.168Z,23.50
2018-06-23T17:03:17.372Z,23.46
2018-06-23T17:05:46.119Z,23.10
2018-06-23T17:08:14.807Z,23.46
2018-06-23T17:10:43.679Z,23.37
2018-06-23T17:13:12.362Z,23.21
2018-06-23T17:15:41.153Z,23.14
2018-06-23T17:18:09.759Z,23.08
2018-06-23T17:20:38.837Z,23.23
2018-06-23T17:23:08.191Z,23.25
2018-06-23T17:25:36.813Z,23.13
2018-06-23T17:28:06.116Z,23.15
2018-06-23T17:30:34.734Z,22.93
2018-06-23T17:33:03.339Z,23.27
2018-06-23T17:35:31.900Z,23.33
2018-06-23T17:38:00.683Z,23.02
2018-06-23T17:40:29.304Z,23.03
2018-06-23T17:42:57.976Z,22.84
2018-06-23T17:45:27.199Z,22.56
2018-06-23T17:47:55.915Z,22.42
2018-06-23T17:50:24.533Z,22.32
2018-06-23T17:52:53.133Z,22.20
2018-06-23T17:55:21.836Z,22.16
2018-06-23T17:57:51.005Z,21.98
2018-06-23T18:00:20.139Z,21.85
2018-06-23T18:02:48.727Z,21.80
2018-06-23T18:05:17.480Z,21.78
2018-06-23T18:07:46.157Z,21.82
2018-06-23T18:10:14.911Z,21.42
2018-06-23T18:12:43.656Z,21.39
2018-06-23T18:15:12.645Z,21.57
2018-06-23T18:17:41.372Z,21.51
2018-06-23T18:20:10.021Z,21.43
2018-06-23T18:22:38.991Z,21.49
2018-06-23T18:25:07.563Z,21.27
2018-06-23T18:27:36.482Z,21.44
2018-06-23T18:30:05.684Z,21.39
2018-06-23T18:32:34.559Z,21.22
2018-06-23T18:35:03.435Z,21.21
2018-06-23T18:37:32.044Z,21.11
2018-06-23T18:40:00.665Z,21.14
2018-06-23T18:42:29.339Z,21.08
2018-06-23T18:44:57.983Z,20.99
2018-06-23T18:47:26.853Z,20.89
2018-06-23T18:49:55.456Z,20.72
2018-06-23T18:52:24.713Z,20.54
2018-06-23T18:54:54.221Z,20.37
2018-06-23T18:57:23.379Z,20.06
2018-06-23T18:59:52.071Z,20.19
2018-06-23T19:02:20.919Z,20.21
2018-06-23T19:04:49.707Z,20.11
2018-06-23T19:07:18.383Z,19.95
2018-06-23T19:21:58.051Z,19.62
2018-06-23T19:24:26.699Z,19.64
2018-06-23T19:26:55.339Z,19.69
2018-06-23T19:29:23.951Z,19.67
2018-06-23T19:31:52.536Z,19.62
2018-06-23T19:34:21.456Z,19.61
2018-06-23T19:36:50.098Z,19.61
2018-06-23T19:39:19.526Z,19.46
2018-06-23T19:41:48.587Z,19.46
2018-06-23T19:44:18.938Z,19.41
2018-06-23T19:46:49.506Z,19.38
2018-06-23T19:49:18.723Z,19.18
2018-06-23T19:51:47.410Z,19.26
2018-06-23T19:54:16.028Z,19.06
2018-06-23T19:56:46.377Z,19.17
2018-06-23T19:59:15.076Z,18.87
2018-06-23T20:01:44.012Z,19.04
2018-06-23T20:04:12.604Z,19.10
2018-06-23T20:06:41.245Z,19.13
2018-06-23T20:09:10.363Z,19.05
2018-06-23T20:11:39.427Z,19.06
2018-06-23T20:14:08.852Z,19.08
2018-06-23T20:16:38.073Z,19.00
2018-06-23T20:19:06.738Z,19.03
2018-06-23T20:21:35.451Z,19.00
2018-06-23T20:26:54.904Z,18.82
2018-06-23T20:29:23.463Z,18.89
2018-06-23T20:31:52.216Z,18.80
2018-06-23T20:34:21.344Z,18.79
2018-06-23T20:36:49.966Z,18.78
2018-06-23T20:39:18.834Z,18.67
2018-06-23T20:41:47.576Z,18.59
2018-06-23T20:44:16.333Z,18.60
2018-06-23T20:46:44.947Z,18.44
2018-06-23T20:49:13.664Z,18.35
2018-06-23T20:51:43.136Z,18.22
2018-06-23T20:54:11.735Z,17.97
2018-06-23T20:56:40.359Z,18.04
2018-06-23T20:59:09.123Z,17.97
2018-06-23T21:01:38.254Z,17.94
2018-06-23T21:04:06.908Z,17.88
2018-06-23T21:06:35.587Z,17.89
2018-06-23T21:09:06.736Z,17.86
2018-06-23T21:11:35.460Z,17.80
2018-06-23T21:14:04.514Z,17.87
2018-06-23T21:16:33.359Z,17.88
2018-06-23T21:19:02.172Z,17.85
2018-06-23T21:21:31.323Z,17.82
2018-06-23T21:24:01.655Z,17.74
2018-06-23T21:26:30.327Z,17.72
2018-06-23T21:28:58.965Z,17.65
2018-06-23T21:31:28.304Z,17.57
2018-06-23T21:33:59.156Z,17.58
2018-06-23T21:36:27.780Z,17.56
2018-06-23T21:38:56.928Z,17.59
2018-06-23T21:41:25.565Z,17.61
2018-06-23T21:43:54.358Z,17.65
2018-06-23T21:46:23.096Z,17.65
2018-06-23T21:48:52.391Z,17.65
2018-06-23T21:51:21.068Z,17.71
2018-06-23T21:53:49.729Z,17.76
2018-06-23T21:56:18.308Z,17.80
2018-06-23T21:58:46.932Z,17.80
2018-06-23T22:01:15.598Z,17.76
2018-06-23T22:03:44.597Z,17.79
2018-06-23T22:06:13.243Z,17.80
2018-06-23T22:08:41.919Z,17.77
2018-06-23T22:11:10.683Z,17.82
2018-06-23T22:13:39.224Z,17.82
2018-06-23T22:16:14.008Z,17.74
2018-06-23T22:18:42.749Z,17.65
2018-06-23T22:21:11.338Z,17.59
2018-06-23T22:23:40.032Z,17.57
2018-06-23T22:26:08.812Z,17.50
2018-06-23T22:28:37.604Z,17.42
2018-06-23T22:31:06.618Z,17.33
2018-06-23T22:33:35.823Z,17.25
2018-06-23T22:36:04.673Z,17.18
2018-06-23T22:38:33.259Z,17.13
2018-06-23T22:41:02.780Z,17.04
2018-06-23T22:43:31.565Z,16.99
2018-06-23T22:46:00.276Z,17.02
2018-06-23T22:48:28.897Z,16.94
2018-06-23T22:50:57.504Z,17.01
2018-06-23T22:53:26.239Z,16.99
2018-06-23T22:55:54.796Z,17.03
2018-06-23T22:58:23.367Z,17.00
2018-06-23T23:00:52.112Z,16.98
2018-06-23T23:03:20.654Z,17.01
2018-06-23T23:05:49.548Z,16.95
2018-06-23T23:08:18.151Z,16.83
2018-06-23T23:10:46.740Z,16.75
2018-06-23T23:13:15.297Z,16.76
2018-06-23T23:15:43.827Z,16.68
2018-06-23T23:18:12.531Z,16.61
2018-06-23T23:20:41.036Z,16.68
2018-06-23T23:23:09.680Z,16.67
2018-06-23T23:25:38.264Z,16.71
2018-06-23T23:28:06.840Z,16.70
2018-06-23T23:30:35.442Z,16.64
2018-06-23T23:33:04.017Z,16.54
2018-06-23T23:35:32.602Z,16.42
2018-06-23T23:38:01.165Z,16.32
2018-06-23T23:40:29.816Z,16.29
2018-06-23T23:42:58.384Z,16.21
2018-06-23T23:45:27.083Z,16.13
2018-06-23T23:47:55.608Z,16.08
2018-06-23T23:50:24.180Z,15.99
2018-06-23T23:52:52.764Z,15.86
2018-06-23T23:55:21.603Z,15.86
2018-06-23T23:57:50.207Z,15.84
